createdAt,value
2023-02-14T00:02:11.187Z,8.97
2023-02-14T00:05:14.345Z,9.83
2023-02-14T00:08:17.565Z,10.10
2023-02-14T00:11:21.528Z,10.10
2023-02-14T00:14:42.178Z,10.47
2023-02-14T00:17:46.770Z,9.87
2023-02-14T00:20:49.935Z,10.60
2023-02-14T00:23:53.096Z,10.83
2023-02-14T00:26:56.328Z,10.07
2023-02-14T00:30:03.192Z,10.57
2023-02-14T00:33:07.803Z,10.67
2023-02-14T00:36:12.510Z,10.27
2023-02-14T00:39:16.902Z,9.67
2023-02-14T00:42:20.636Z,10.17
2023-02-14T00:45:24.315Z,11.03
2023-02-14T00:48:28.929Z,11.80
2023-02-14T00:51:32.395Z,10.87
2023-02-14T00:54:35.536Z,9.80
2023-02-14T00:57:38.704Z,11.40
2023-02-14T01:00:41.945Z,11.00
2023-02-14T01:03:46.657Z,11.40
2023-02-14T01:06:49.865Z,11.60
2023-02-14T01:09:53.031Z,10.23
2023-02-14T01:12:56.196Z,9.70
2023-02-14T01:15:59.357Z,10.60
2023-02-14T01:19:04.074Z,9.47
2023-02-14T01:22:07.220Z,9.73
2023-02-14T01:25:10.658Z,10.30
2023-02-14T01:28:13.900Z,10.10
2023-02-14T01:31:19.033Z,11.20
2023-02-14T01:34:23.759Z,10.40
2023-02-14T01:37:27.324Z,10.13
2023-02-14T01:40:30.487Z,9.63
2023-02-14T01:43:33.794Z,11.07
2023-02-14T01:46:39.036Z,9.90
2023-02-14T01:49:47.634Z,10.70
2023-02-14T01:52:53.921Z,11.50
2023-02-14T01:56:03.664Z,11.13
2023-02-14T01:59:10.052Z,11.90
2023-02-14T02:02:13.476Z,10.77
2023-02-14T02:05:23.931Z,10.70
2023-02-14T02:08:27.464Z,11.30
2023-02-14T02:11:30.671Z,11.20
2023-02-14T02:14:34.550Z,9.33
2023-02-14T02:17:49.167Z,9.70
2023-02-14T02:21:14.845Z,11.73
2023-02-14T02:24:34.398Z,10.00
2023-02-14T02:28:05.761Z,10.10
2023-02-14T02:31:26.827Z,10.70
2023-02-14T02:35:10.541Z,10.73
2023-02-14T02:38:30.096Z,10.67
2023-02-14T02:41:45.062Z,10.17
2023-02-14T02:44:57.798Z,10.00
2023-02-14T02:48:08.494Z,11.27
2023-02-14T02:51:36.304Z,10.07
2023-02-14T02:54:44.378Z,11.83
2023-02-14T02:57:49.811Z,9.57
2023-02-14T03:00:54.939Z,9.67
2023-02-14T03:04:18.814Z,10.20
2023-02-14T03:07:39.508Z,9.17
2023-02-14T03:10:42.845Z,9.50
2023-02-14T03:14:11.016Z,8.53
2023-02-14T03:17:42.201Z,10.00
2023-02-14T03:20:55.056Z,9.47
2023-02-14T03:24:06.641Z,10.20
2023-02-14T03:27:16.741Z,9.10
2023-02-14T03:30:27.039Z,9.83
2023-02-14T03:33:34.675Z,8.80
2023-02-14T03:36:41.474Z,8.70
2023-02-14T03:39:57.851Z,8.40
2023-02-14T03:43:07.598Z,8.90
2023-02-14T03:46:16.574Z,9.80
2023-02-14T03:49:23.199Z,9.40
2023-02-14T03:52:28.180Z,9.80
2023-02-14T03:55:38.936Z,9.03
2023-02-14T03:58:46.180Z,10.30
2023-02-14T04:01:54.867Z,10.77
2023-02-14T04:05:01.032Z,10.47
2023-02-14T04:08:04.202Z,10.20
2023-02-14T04:11:09.091Z,11.30
2023-02-14T04:14:12.265Z,9.30
2023-02-14T04:17:32.959Z,9.07
2023-02-14T04:20:37.232Z,10.00
2023-02-14T04:23:40.519Z,10.23
2023-02-14T04:26:54.318Z,10.30
2023-02-14T04:29:57.592Z,12.17
2023-02-14T04:33:00.821Z,9.13
2023-02-14T04:36:04.069Z,9.17
2023-02-14T04:39:07.277Z,10.10
2023-02-14T04:42:11.975Z,8.20
2023-02-14T04:45:15.632Z,9.53
2023-02-14T04:48:18.811Z,8.67
2023-02-14T04:51:21.990Z,8.63
2023-02-14T04:54:25.311Z,10.37
2023-02-14T04:57:29.868Z,10.00
2023-02-14T05:00:33.078Z,10.63
2023-02-14T05:03:36.517Z,11.30
2023-02-14T05:06:39.696Z,12.30
2023-02-14T05:09:42.925Z,10.33
2023-02-14T05:12:47.454Z,11.60
2023-02-14T05:15:50.617Z,9.63
2023-02-14T05:18:53.800Z,8.63
2023-02-14T05:21:57.016Z,11.80
2023-02-14T05:25:00.179Z,10.10
2023-02-14T05:28:04.748Z,9.67
2023-02-14T05:31:08.163Z,9.40
2023-02-14T05:34:11.467Z,9.67
2023-02-14T05:37:14.629Z,10.50
2023-02-14T05:40:18.013Z,10.90
2023-02-14T05:43:22.926Z,9.70
2023-02-14T05:46:26.159Z,9.27
2023-02-14T05:49:29.423Z,9.20
2023-02-14T05:52:32.610Z,9.67
2023-02-14T05:55:35.809Z,8.60
2023-02-14T05:58:40.386Z,10.47
2023-02-14T06:01:43.556Z,10.10
2023-02-14T06:04:46.725Z,12.50
2023-02-14T06:07:51.424Z,12.00
2023-02-14T06:10:54.617Z,10.70
2023-02-14T06:13:59.212Z,11.50
2023-02-14T06:17:02.493Z,11.03
2023-02-14T06:20:07.402Z,10.83
2023-02-14T06:23:11.135Z,11.40
2023-02-14T06:26:14.339Z,13.80
2023-02-14T06:29:19.484Z,12.50
2023-02-14T06:32:22.795Z,10.83
2023-02-14T06:35:26.003Z,10.73
2023-02-14T06:38:29.200Z,11.23
2023-02-14T06:41:32.362Z,11.97
2023-02-14T06:44:36.911Z,10.70
2023-02-14T06:47:41.182Z,10.93
2023-02-14T06:50:44.381Z,11.10
2023-02-14T06:53:47.558Z,12.40
2023-02-14T06:56:50.728Z,16.03
2023-02-14T06:59:55.415Z,12.53
2023-02-14T07:02:58.933Z,12.77
2023-02-14T07:06:02.138Z,11.60
2023-02-14T07:09:05.874Z,12.37
2023-02-14T07:12:09.293Z,12.73
2023-02-14T07:15:14.588Z,12.80
2023-02-14T07:18:17.781Z,11.87
2023-02-14T07:21:20.984Z,11.53
2023-02-14T07:24:24.431Z,11.17
2023-02-14T07:27:27.714Z,15.03
2023-02-14T07:30:32.854Z,11.73
2023-02-14T07:33:36.080Z,11.30
2023-02-14T07:36:39.559Z,11.10
2023-02-14T07:39:42.745Z,12.40
2023-02-14T07:42:45.938Z,11.37
2023-02-14T07:45:50.610Z,13.20
2023-02-14T07:48:53.814Z,13.70
2023-02-14T07:51:56.985Z,13.30
2023-02-14T07:55:00.289Z,13.10
2023-02-14T07:58:03.568Z,15.10
2023-02-14T08:01:08.753Z,17.43
2023-02-14T08:04:13.927Z,17.70
2023-02-14T08:07:17.172Z,17.40
2023-02-14T08:10:20.558Z,15.93
2023-02-14T08:13:23.840Z,15.97
2023-02-14T08:16:28.570Z,17.80
2023-02-14T08:19:31.928Z,17.07
2023-02-14T08:22:35.368Z,18.00
2023-02-14T08:25:38.540Z,16.07
2023-02-14T08:28:41.736Z,17.60
2023-02-14T08:31:47.530Z,16.90
2023-02-14T08:34:50.771Z,17.30
2023-02-14T08:37:54.089Z,17.10
2023-02-14T08:41:02.722Z,15.73
2023-02-14T08:44:07.712Z,15.57
2023-02-14T08:47:12.812Z,16.27
2023-02-14T08:50:18.844Z,15.00
2023-02-14T08:53:22.818Z,15.67
2023-02-14T08:56:25.986Z,13.97
2023-02-14T08:59:29.190Z,16.07
2023-02-14T09:02:34.423Z,17.30
2023-02-14T09:05:37.642Z,15.23
2023-02-14T09:08:41.487Z,15.43
2023-02-14T09:11:44.728Z,16.80
2023-02-14T09:14:47.930Z,15.90
2023-02-14T09:17:52.529Z,17.07
2023-02-14T09:20:55.762Z,16.47
2023-02-14T09:23:59.035Z,15.40
2023-02-14T09:27:02.911Z,16.23
2023-02-14T09:30:07.017Z,18.57
2023-02-14T09:33:11.726Z,17.10
2023-02-14T09:36:32.375Z,18.10
2023-02-14T09:39:37.154Z,16.93
2023-02-14T09:42:52.668Z,17.00
2023-02-14T09:45:59.485Z,17.50
2023-02-14T09:49:04.250Z,16.53
2023-02-14T09:52:12.305Z,15.40
2023-02-14T09:55:18.030Z,13.93
2023-02-14T09:58:28.159Z,13.40
2023-02-14T10:01:37.189Z,14.87
2023-02-14T10:04:48.053Z,16.07
2023-02-14T10:08:01.358Z,14.83
2023-02-14T10:11:09.770Z,16.00
2023-02-14T10:14:17.133Z,15.38
2023-02-14T10:17:28.014Z,16.67
2023-02-14T10:20:38.689Z,17.33
2023-02-14T10:23:46.873Z,16.35
2023-02-14T10:26:51.712Z,15.13
2023-02-14T10:29:55.272Z,16.42
2023-02-14T10:33:04.701Z,15.82
2023-02-14T10:36:19.086Z,15.77
2023-02-14T10:39:49.470Z,16.10
2023-02-14T10:43:00.627Z,15.88
2023-02-14T10:46:12.004Z,14.90
2023-02-14T10:49:28.538Z,14.82
2023-02-14T10:52:38.855Z,15.55
2023-02-14T10:55:50.221Z,15.05
2023-02-14T10:58:57.811Z,16.75
2023-02-14T11:02:02.590Z,15.18
2023-02-14T11:05:07.369Z,15.57
2023-02-14T11:08:25.228Z,15.82
2023-02-14T11:11:36.094Z,16.25
2023-02-14T11:14:41.113Z,16.30
2023-02-14T11:17:44.436Z,15.25
2023-02-14T11:21:02.048Z,18.17
2023-02-14T11:24:18.250Z,15.07
2023-02-14T11:27:21.836Z,16.77
2023-02-14T11:30:31.348Z,16.67
2023-02-14T11:33:39.747Z,16.08
2023-02-14T11:36:43.452Z,16.20
2023-02-14T11:39:48.076Z,16.23
2023-02-14T11:42:54.674Z,15.43
2023-02-14T11:46:14.631Z,15.73
2023-02-14T11:49:30.305Z,15.23
2023-02-14T11:52:40.494Z,17.50
2023-02-14T11:55:45.427Z,15.32
2023-02-14T11:58:54.304Z,17.48
2023-02-14T12:01:59.909Z,16.35
2023-02-14T12:05:06.947Z,16.85
2023-02-14T12:08:11.114Z,15.13
2023-02-14T12:11:23.537Z,16.45
2023-02-14T12:14:29.537Z,17.15
2023-02-14T12:17:36.742Z,15.90
2023-02-14T12:20:45.353Z,17.58
2023-02-14T12:23:56.850Z,15.48
2023-02-14T12:27:11.726Z,16.33
2023-02-14T12:30:19.126Z,16.63
2023-02-14T12:33:26.005Z,16.20
2023-02-14T12:36:44.109Z,16.75
2023-02-14T12:40:04.284Z,17.08
2023-02-14T12:43:34.235Z,17.23
2023-02-14T12:47:00.134Z,16.05
2023-02-14T12:50:32.138Z,15.65
2023-02-14T12:53:52.277Z,16.83
2023-02-14T12:57:04.371Z,16.77
2023-02-14T13:00:24.180Z,17.13
2023-02-14T13:03:46.857Z,17.52
2023-02-14T13:06:55.866Z,17.02
2023-02-14T13:10:04.773Z,16.38
2023-02-14T13:13:13.613Z,16.73
2023-02-14T13:16:24.455Z,17.20
2023-02-14T13:19:38.298Z,17.48
2023-02-14T13:22:42.859Z,16.52
2023-02-14T13:25:51.558Z,17.00
2023-02-14T13:28:58.535Z,15.95
2023-02-14T13:32:05.402Z,16.83
2023-02-14T13:35:09.634Z,16.80
2023-02-14T13:38:16.823Z,16.60
2023-02-14T13:41:21.386Z,16.98
2023-02-14T13:44:43.080Z,17.40
2023-02-14T13:47:47.718Z,16.40
2023-02-14T13:50:55.029Z,16.88
2023-02-14T13:53:58.284Z,17.05
2023-02-14T13:57:03.190Z,17.42
2023-02-14T14:00:38.537Z,16.65
2023-02-14T14:03:58.818Z,16.67
2023-02-14T14:07:22.153Z,16.95
2023-02-14T14:10:44.897Z,17.00
2023-02-14T14:14:02.791Z,16.05
2023-02-14T14:17:27.821Z,17.10
2023-02-14T14:20:49.673Z,17.33
2023-02-14T14:24:13.685Z,18.90
2023-02-14T14:27:19.867Z,16.80
2023-02-14T14:30:28.543Z,15.30
2023-02-14T14:33:33.883Z,15.00
2023-02-14T14:36:38.426Z,15.30
2023-02-14T14:39:41.602Z,15.07
2023-02-14T14:42:44.925Z,14.00
2023-02-14T14:45:50.972Z,14.10
2023-02-14T14:48:56.597Z,13.77
2023-02-14T14:52:01.273Z,13.70
2023-02-14T14:55:07.231Z,13.57
2023-02-14T14:58:33.133Z,14.33
2023-02-14T15:01:40.043Z,12.67
2023-02-14T15:04:43.259Z,13.00
2023-02-14T15:07:47.837Z,14.50
2023-02-14T15:10:57.381Z,14.57
2023-02-14T15:13:59.854Z,13.17
2023-02-14T15:17:05.471Z,13.93
2023-02-14T15:20:12.375Z,13.17
2023-02-14T15:23:22.473Z,13.30
2023-02-14T15:26:35.665Z,13.70
2023-02-14T15:29:39.048Z,12.43
2023-02-14T15:32:42.696Z,14.57
2023-02-14T15:35:46.067Z,14.73
2023-02-14T15:38:51.064Z,15.30
2023-02-14T15:41:55.853Z,15.30
2023-02-14T15:45:25.456Z,14.60
2023-02-14T15:48:34.408Z,13.67
2023-02-14T15:51:39.969Z,14.10
2023-02-14T15:54:47.397Z,15.00
2023-02-14T15:57:56.862Z,13.83
2023-02-14T16:01:01.651Z,13.30
2023-02-14T16:04:08.681Z,18.20
2023-02-14T16:07:28.082Z,13.23
2023-02-14T16:10:34.470Z,14.07
2023-02-14T16:13:39.730Z,13.67
2023-02-14T16:17:01.629Z,16.07
2023-02-14T16:20:22.830Z,17.40
2023-02-14T16:23:28.894Z,23.83
2023-02-14T16:26:34.130Z,18.13
2023-02-14T16:29:37.730Z,25.60
2023-02-14T16:32:42.826Z,18.90
2023-02-14T16:35:48.246Z,19.63
2023-02-14T16:38:53.079Z,24.33
2023-02-14T16:41:58.235Z,23.87
2023-02-14T16:45:03.751Z,19.23
2023-02-14T16:48:09.072Z,16.03
2023-02-14T16:51:15.418Z,16.53
2023-02-14T16:54:21.937Z,16.27
2023-02-14T16:57:29.594Z,15.70
2023-02-14T17:00:33.518Z,17.10
2023-02-14T17:03:36.712Z,16.53
2023-02-14T17:06:47.188Z,16.27
2023-02-14T17:09:54.884Z,15.30
2023-02-14T17:13:01.736Z,16.80
2023-02-14T17:16:07.053Z,17.33
2023-02-14T17:19:12.016Z,17.73
2023-02-14T17:22:16.322Z,17.67
2023-02-14T17:25:20.385Z,17.83
2023-02-14T17:28:28.125Z,18.67
2023-02-14T17:31:31.554Z,19.30
2023-02-14T17:34:36.081Z,15.93
2023-02-14T17:37:40.183Z,18.07
2023-02-14T17:40:45.060Z,17.50
2023-02-14T17:43:52.441Z,16.63
2023-02-14T17:46:57.692Z,18.23
2023-02-14T17:50:03.945Z,17.60
2023-02-14T17:53:09.896Z,17.97
2023-02-14T17:56:15.757Z,17.30
2023-02-14T17:59:22.945Z,15.50
2023-02-14T18:02:27.861Z,15.33
2023-02-14T18:05:33.753Z,17.53
2023-02-14T18:08:39.992Z,16.83
2023-02-14T18:11:46.430Z,18.30
2023-02-14T18:14:57.040Z,17.13
2023-02-14T18:18:01.461Z,17.07
2023-02-14T18:21:09.044Z,17.37
2023-02-14T18:24:15.789Z,18.80
2023-02-14T18:27:19.845Z,17.57
2023-02-14T18:30:26.017Z,19.30
2023-02-14T18:33:30.435Z,17.43
2023-02-14T18:36:38.232Z,16.77
2023-02-14T18:39:43.214Z,18.50
2023-02-14T18:42:48.231Z,16.40
2023-02-14T18:45:54.505Z,17.37
2023-02-14T18:48:59.495Z,17.53
2023-02-14T18:52:05.509Z,17.17
2023-02-14T18:55:11.645Z,18.03
2023-02-14T18:58:16.446Z,19.27
2023-02-14T19:01:26.611Z,17.17
2023-02-14T19:04:34.290Z,18.00
2023-02-14T19:07:39.527Z,17.03
2023-02-14T19:10:44.413Z,18.57
2023-02-14T19:13:53.537Z,17.77
2023-02-14T19:16:59.775Z,18.80
2023-02-14T19:20:09.264Z,17.40
2023-02-14T19:23:14.606Z,18.67
2023-02-14T19:26:21.246Z,18.00
2023-02-14T19:29:25.960Z,19.63
2023-02-14T19:32:31.778Z,18.10
2023-02-14T19:35:36.864Z,18.97
2023-02-14T19:38:44.468Z,17.50
2023-02-14T19:41:51.128Z,20.63
2023-02-14T19:44:57.289Z,17.10
2023-02-14T19:48:06.626Z,17.87
2023-02-14T19:51:15.655Z,18.00
2023-02-14T19:54:22.426Z,19.60
2023-02-14T19:57:27.598Z,21.07
2023-02-14T20:00:41.850Z,18.43
2023-02-14T20:03:55.156Z,18.40
2023-02-14T20:07:01.067Z,19.47
2023-02-14T20:10:06.517Z,18.70
2023-02-14T20:13:12.877Z,18.63
2023-02-14T20:16:19.101Z,19.87
2023-02-14T20:19:32.874Z,19.20
2023-02-14T20:22:39.090Z,21.83
2023-02-14T20:25:45.059Z,24.77
2023-02-14T20:28:51.528Z,20.20
2023-02-14T20:31:58.701Z,26.40
2023-02-14T20:35:06.220Z,24.77
2023-02-14T20:38:11.502Z,32.47
2023-02-14T20:41:32.990Z,24.53
2023-02-14T20:44:38.945Z,21.20
2023-02-14T20:47:44.160Z,19.40
2023-02-14T20:50:54.794Z,20.50
2023-02-14T20:54:02.470Z,20.27
2023-02-14T20:57:08.677Z,18.23
2023-02-14T21:00:16.022Z,19.97
2023-02-14T21:03:24.191Z,19.70
2023-02-14T21:06:33.320Z,18.07
2023-02-14T21:09:39.855Z,19.10
2023-02-14T21:12:47.885Z,18.83
2023-02-14T21:15:57.789Z,17.83
2023-02-14T21:19:04.820Z,17.87
2023-02-14T21:22:12.747Z,18.37
2023-02-14T21:25:17.533Z,17.80
2023-02-14T21:28:23.300Z,18.13
2023-02-14T21:31:28.505Z,18.40
2023-02-14T21:34:35.913Z,18.37
2023-02-14T21:37:42.668Z,25.17
2023-02-14T21:40:47.497Z,20.00
2023-02-14T21:43:54.441Z,21.33
2023-02-14T21:46:59.124Z,24.57
2023-02-14T21:50:20.634Z,22.80
2023-02-14T21:53:25.662Z,22.40
2023-02-14T21:56:30.672Z,22.50
2023-02-14T21:59:35.573Z,23.17
2023-02-14T22:02:40.091Z,18.63
2023-02-14T22:05:43.995Z,18.00
2023-02-14T22:08:52.940Z,19.60
2023-02-14T22:11:56.236Z,19.87
2023-02-14T22:15:01.583Z,20.50
2023-02-14T22:18:07.606Z,22.53
2023-02-14T22:21:14.019Z,20.93
2023-02-14T22:24:18.565Z,19.13
2023-02-14T22:27:21.723Z,19.60
2023-02-14T22:30:25.254Z,19.77
2023-02-14T22:33:28.423Z,23.00
2023-02-14T22:36:31.843Z,21.50
2023-02-14T22:39:36.373Z,20.77
2023-02-14T22:42:39.553Z,22.97
2023-02-14T22:45:42.751Z,20.83
2023-02-14T22:48:46.099Z,22.43
2023-02-14T22:51:49.281Z,20.67
2023-02-14T22:54:54.774Z,20.33
2023-02-14T22:57:58.203Z,20.13
2023-02-14T23:01:01.387Z,20.20
2023-02-14T23:04:05.767Z,19.50
2023-02-14T23:07:11.332Z,19.70
2023-02-14T23:10:15.901Z,19.00
2023-02-14T23:13:36.406Z,20.30
2023-02-14T23:16:57.058Z,19.60
2023-02-14T23:20:17.877Z,20.70
2023-02-14T23:23:21.073Z,20.40
2023-02-14T23:26:25.590Z,19.27
2023-02-14T23:29:28.781Z,18.13
2023-02-14T23:32:31.940Z,19.07
2023-02-14T23:35:37.569Z,19.27
2023-02-14T23:38:40.722Z,19.93
2023-02-14T23:41:51.171Z,17.53
2023-02-14T23:44:54.523Z,18.60
2023-02-14T23:47:57.695Z,18.90
2023-02-14T23:51:01.412Z,20.10
2023-02-14T23:54:05.019Z,21.00
2023-02-14T23:57:10.390Z,23.80
